Terminal Aerodrome Forecast
Issued by NWS

Home | Current Version | Previous Version | Text Only | Print | Product List | Glossary On
Versions: 1 2 3 4 5 6 7 8 9 10 11 12 13
000
FTUS43 KOAX 291141
TAFCDR
TAF
KCDR 291141Z 2912/3012 30005KT P6SM SCT025
     FM291400 26006KT P6SM SKC
     FM300400 18012G20KT P6SM SCT250=

USA.gov is the U.S. government's official web portal to all federal, state and local government web resources and services.